EZY1625 EGJJ-EGMC
Flight info
| Callsign | EZY1625 |
|---|---|
| Flight time | 0h 44m |
| Altitude | 28000 |
| Route | BENIX G27 NEVIL |
| Aircraft | A320/M-SDE3FGHIRWY/LB1 |
Departure
| Time | 2026-04-26 15:28 |
|---|---|
| Airport | Jersey Airport (EGJJ) |
Arrival
| Time | 2026-04-26 16:12 |
|---|---|
| Airport | London Southend Airport (EGMC) |
| Time | Latitude | Longitude | Altitude | Speed | Heading |
|---|---|---|---|---|---|
| 2026-04-26 15:04 | 49.20494 | -2.19736 | 284 ft | 0 kts | 353° |
| 2026-04-26 15:22 | 49.20485 | -2.19734 | 284 ft | 4 kts | 352° |
| 2026-04-26 15:22 | 49.20459 | -2.19725 | 284 ft | 4 kts | 332° |
| 2026-04-26 15:22 | 49.20443 | -2.19702 | 284 ft | 4 kts | 272° |
| 2026-04-26 15:23 | 49.20443 | -2.19668 | 284 ft | 4 kts | 283° |
| 2026-04-26 15:23 | 49.20438 | -2.19638 | 286 ft | 1 kts | 284° |
| 2026-04-26 15:23 | 49.20438 | -2.19637 | 284 ft | 0 kts | 284° |
| 2026-04-26 15:25 | 49.20442 | -2.19679 | 286 ft | 11 kts | 272° |
| 2026-04-26 15:25 | 49.20432 | -2.19758 | 289 ft | 11 kts | 254° |
| 2026-04-26 15:25 | 49.20438 | -2.19901 | 287 ft | 9 kts | 307° |
| 2026-04-26 15:25 | 49.20493 | -2.19934 | 289 ft | 8 kts | 333° |
| 2026-04-26 15:26 | 49.20522 | -2.20018 | 286 ft | 14 kts | 287° |
| 2026-04-26 15:26 | 49.20557 | -2.20197 | 284 ft | 19 kts | 286° |
| 2026-04-26 15:26 | 49.20597 | -2.20399 | 284 ft | 21 kts | 288° |
| 2026-04-26 15:26 | 49.20629 | -2.20596 | 284 ft | 13 kts | 270° |
| 2026-04-26 15:27 | 49.20655 | -2.20703 | 284 ft | 11 kts | 339° |
| 2026-04-26 15:27 | 49.20709 | -2.20612 | 283 ft | 26 kts | 76° |
| 2026-04-26 15:27 | 49.20775 | -2.19890 | 285 ft | 107 kts | 83° |
| 2026-04-26 15:27 | 49.20879 | -2.18463 | 492 ft | 144 kts | 83° |
| 2026-04-26 15:28 | 49.20991 | -2.16952 | 1262 ft | 142 kts | 81° |
| 2026-04-26 15:28 | 49.21128 | -2.15455 | 1863 ft | 150 kts | 81° |
| 2026-04-26 15:28 | 49.21288 | -2.13749 | 2240 ft | 171 kts | 82° |
| 2026-04-26 15:28 | 49.21465 | -2.11835 | 2614 ft | 197 kts | 82° |
| 2026-04-26 15:29 | 49.21665 | -2.09630 | 3061 ft | 222 kts | 83° |
| 2026-04-26 15:29 | 49.21900 | -2.07166 | 3606 ft | 246 kts | 79° |
| 2026-04-26 15:29 | 49.23497 | -2.02287 | 5335 ft | 267 kts | 49° |
| 2026-04-26 15:30 | 49.26041 | -1.98000 | 7264 ft | 276 kts | 48° |
| 2026-04-26 15:30 | 49.27343 | -1.95799 | 8211 ft | 281 kts | 48° |
| 2026-04-26 15:30 | 49.28653 | -1.93575 | 9287 ft | 274 kts | 48° |
| 2026-04-26 15:31 | 49.29879 | -1.91490 | 10755 ft | 253 kts | 48° |
| 2026-04-26 15:31 | 49.32205 | -1.87532 | 12614 ft | 251 kts | 47° |
| 2026-04-26 15:31 | 49.33380 | -1.85536 | 13242 ft | 253 kts | 47° |
| 2026-04-26 15:32 | 49.35362 | -1.82167 | 14481 ft | 259 kts | 46° |
| 2026-04-26 15:32 | 49.36989 | -1.79393 | 15424 ft | 264 kts | 47° |
| 2026-04-26 15:32 | 49.38224 | -1.77283 | 16130 ft | 267 kts | 47° |
| 2026-04-26 15:33 | 49.39475 | -1.75147 | 16791 ft | 271 kts | 47° |
| 2026-04-26 15:33 | 49.40746 | -1.72973 | 17435 ft | 276 kts | 47° |
| 2026-04-26 15:33 | 49.42036 | -1.70766 | 18072 ft | 280 kts | 47° |
| 2026-04-26 15:33 | 49.43344 | -1.68523 | 18696 ft | 284 kts | 47° |
| 2026-04-26 15:34 | 49.44670 | -1.66246 | 19324 ft | 287 kts | 47° |
| 2026-04-26 15:34 | 49.46008 | -1.63946 | 19936 ft | 291 kts | 47° |
| 2026-04-26 15:34 | 49.47361 | -1.61614 | 20529 ft | 295 kts | 47° |
| 2026-04-26 15:34 | 49.48736 | -1.59246 | 21103 ft | 298 kts | 47° |
| 2026-04-26 15:35 | 49.50128 | -1.56852 | 21666 ft | 302 kts | 47° |
| 2026-04-26 15:35 | 49.51537 | -1.54427 | 22213 ft | 306 kts | 47° |
| 2026-04-26 15:35 | 49.52964 | -1.51969 | 22740 ft | 310 kts | 46° |
| 2026-04-26 15:35 | 49.54408 | -1.49478 | 23265 ft | 314 kts | 47° |
| 2026-04-26 15:36 | 49.55878 | -1.46973 | 23786 ft | 317 kts | 46° |
| 2026-04-26 15:36 | 49.57394 | -1.44468 | 24294 ft | 321 kts | 45° |
| 2026-04-26 15:36 | 49.58937 | -1.41955 | 24809 ft | 324 kts | 45° |
| 2026-04-26 15:36 | 49.60496 | -1.39420 | 25306 ft | 327 kts | 45° |
| 2026-04-26 15:37 | 49.62066 | -1.36859 | 25810 ft | 330 kts | 45° |
| 2026-04-26 15:37 | 49.63646 | -1.34266 | 26292 ft | 333 kts | 45° |
| 2026-04-26 15:37 | 49.65236 | -1.31650 | 26773 ft | 335 kts | 45° |
| 2026-04-26 15:37 | 49.66815 | -1.29047 | 27227 ft | 338 kts | 45° |
| 2026-04-26 15:38 | 49.68427 | -1.26389 | 27680 ft | 341 kts | 45° |
| 2026-04-26 15:38 | 49.70054 | -1.23706 | 28107 ft | 344 kts | 45° |
| 2026-04-26 15:38 | 49.71718 | -1.20956 | 28228 ft | 358 kts | 45° |
| 2026-04-26 15:38 | 49.73459 | -1.18073 | 28251 ft | 375 kts | 45° |
| 2026-04-26 15:39 | 49.75280 | -1.15051 | 28249 ft | 393 kts | 45° |
| 2026-04-26 15:39 | 49.77142 | -1.11829 | 28249 ft | 411 kts | 50° |
| 2026-04-26 15:39 | 49.78813 | -1.08135 | 28249 ft | 428 kts | 58° |
| 2026-04-26 15:39 | 49.79787 | -1.05375 | 28254 ft | 438 kts | 63° |
| 2026-04-26 15:40 | 49.81284 | -0.99460 | 28258 ft | 455 kts | 71° |
| 2026-04-26 15:40 | 49.82304 | -0.94752 | 28258 ft | 467 kts | 71° |
| 2026-04-26 15:40 | 49.84397 | -0.85067 | 28257 ft | 478 kts | 71° |
| 2026-04-26 15:41 | 49.86501 | -0.75282 | 28258 ft | 479 kts | 71° |
| 2026-04-26 15:41 | 49.88602 | -0.65479 | 28065 ft | 479 kts | 71° |
| 2026-04-26 15:42 | 49.89644 | -0.60597 | 27336 ft | 476 kts | 71° |
| 2026-04-26 15:42 | 49.90678 | -0.55740 | 26444 ft | 473 kts | 71° |
| 2026-04-26 15:42 | 49.91885 | -0.51005 | 25529 ft | 471 kts | 64° |
| 2026-04-26 15:42 | 49.93525 | -0.46624 | 24639 ft | 469 kts | 54° |
| 2026-04-26 15:43 | 49.95563 | -0.42713 | 23777 ft | 465 kts | 45° |
| 2026-04-26 15:43 | 49.97936 | -0.39341 | 22918 ft | 461 kts | 37° |
| 2026-04-26 15:43 | 50.02972 | -0.33254 | 21791 ft | 457 kts | 37° |
| 2026-04-26 15:44 | 50.05476 | -0.30199 | 21453 ft | 456 kts | 37° |
| 2026-04-26 15:44 | 50.10432 | -0.24143 | 20722 ft | 450 kts | 37° |
| 2026-04-26 15:44 | 50.12880 | -0.21128 | 20360 ft | 447 kts | 39° |
| 2026-04-26 15:45 | 50.16892 | -0.13838 | 19646 ft | 442 kts | 58° |
| 2026-04-26 15:45 | 50.18507 | -0.09759 | 19297 ft | 440 kts | 58° |
| 2026-04-26 15:46 | 50.21709 | -0.01688 | 18593 ft | 435 kts | 58° |
| 2026-04-26 15:46 | 50.23297 | 0.02315 | 18242 ft | 432 kts | 58° |
| 2026-04-26 15:46 | 50.24873 | 0.06299 | 17903 ft | 430 kts | 58° |
| 2026-04-26 15:46 | 50.25911 | 0.08930 | 17679 ft | 429 kts | 58° |
| 2026-04-26 15:47 | 50.27994 | 0.14228 | 17211 ft | 426 kts | 58° |
| 2026-04-26 15:47 | 50.31073 | 0.22078 | 16536 ft | 421 kts | 58° |
| 2026-04-26 15:47 | 50.32600 | 0.25967 | 16206 ft | 418 kts | 58° |
| 2026-04-26 15:48 | 50.34118 | 0.29839 | 15871 ft | 416 kts | 58° |
| 2026-04-26 15:48 | 50.35627 | 0.33692 | 15538 ft | 414 kts | 58° |
| 2026-04-26 15:48 | 50.37122 | 0.37522 | 15208 ft | 411 kts | 58° |
| 2026-04-26 15:48 | 50.38606 | 0.41335 | 14872 ft | 409 kts | 58° |
| 2026-04-26 15:49 | 50.40079 | 0.45134 | 14549 ft | 407 kts | 58° |
| 2026-04-26 15:49 | 50.41545 | 0.48909 | 14224 ft | 404 kts | 58° |
| 2026-04-26 15:49 | 50.43104 | 0.52806 | 14067 ft | 403 kts | 57° |
| 2026-04-26 15:49 | 50.44555 | 0.56321 | 13905 ft | 402 kts | 56° |
| 2026-04-26 15:50 | 50.46086 | 0.59975 | 13735 ft | 400 kts | 56° |
| 2026-04-26 15:50 | 50.47615 | 0.63615 | 13550 ft | 399 kts | 56° |
| 2026-04-26 15:50 | 50.49136 | 0.67257 | 13376 ft | 398 kts | 56° |
| 2026-04-26 15:50 | 50.50640 | 0.70892 | 13202 ft | 397 kts | 56° |
| 2026-04-26 15:51 | 50.52130 | 0.74527 | 13031 ft | 395 kts | 57° |
| 2026-04-26 15:51 | 50.53613 | 0.78157 | 12850 ft | 394 kts | 57° |
| 2026-04-26 15:51 | 50.55087 | 0.81776 | 12691 ft | 393 kts | 57° |
| 2026-04-26 15:51 | 50.56558 | 0.85389 | 12503 ft | 392 kts | 57° |
| 2026-04-26 15:52 | 50.58029 | 0.88994 | 12330 ft | 390 kts | 56° |
| 2026-04-26 15:52 | 50.59687 | 0.92345 | 12165 ft | 388 kts | 46° |
| 2026-04-26 15:52 | 50.61693 | 0.95163 | 12003 ft | 386 kts | 36° |
| 2026-04-26 15:52 | 50.63151 | 0.96759 | 11894 ft | 385 kts | 33° |
| 2026-04-26 15:53 | 50.66101 | 0.99951 | 11648 ft | 384 kts | 34° |
| 2026-04-26 15:53 | 50.68286 | 1.02331 | 11490 ft | 375 kts | 34° |
| 2026-04-26 15:53 | 50.70350 | 1.04589 | 11369 ft | 356 kts | 34° |
| 2026-04-26 15:53 | 50.72362 | 1.06795 | 11251 ft | 339 kts | 34° |
| 2026-04-26 15:54 | 50.74231 | 1.08843 | 11133 ft | 325 kts | 34° |
| 2026-04-26 15:54 | 50.76051 | 1.10834 | 11004 ft | 312 kts | 34° |
| 2026-04-26 15:54 | 50.77799 | 1.12747 | 10849 ft | 301 kts | 34° |
| 2026-04-26 15:54 | 50.79505 | 1.14617 | 10610 ft | 295 kts | 34° |
| 2026-04-26 15:55 | 50.81188 | 1.16464 | 10486 ft | 294 kts | 34° |
| 2026-04-26 15:55 | 50.82867 | 1.18306 | 10358 ft | 293 kts | 34° |
| 2026-04-26 15:55 | 50.84537 | 1.20141 | 10227 ft | 293 kts | 34° |
| 2026-04-26 15:55 | 50.86211 | 1.21986 | 10096 ft | 292 kts | 34° |
| 2026-04-26 15:56 | 50.87874 | 1.23820 | 9965 ft | 291 kts | 34° |
| 2026-04-26 15:56 | 50.89538 | 1.25657 | 9839 ft | 291 kts | 34° |
| 2026-04-26 15:56 | 50.91198 | 1.27493 | 9709 ft | 291 kts | 34° |
| 2026-04-26 15:56 | 50.92854 | 1.29323 | 9581 ft | 290 kts | 34° |
| 2026-04-26 15:57 | 50.94505 | 1.31148 | 9454 ft | 289 kts | 34° |
| 2026-04-26 15:57 | 50.96212 | 1.32819 | 9325 ft | 288 kts | 24° |
| 2026-04-26 15:57 | 50.97479 | 1.33572 | 9249 ft | 287 kts | 15° |
| 2026-04-26 15:57 | 50.98768 | 1.34042 | 9212 ft | 287 kts | 12° |
| 2026-04-26 15:58 | 51.01378 | 1.34945 | 9117 ft | 287 kts | 12° |
| 2026-04-26 15:58 | 51.03303 | 1.35620 | 9038 ft | 287 kts | 12° |
| 2026-04-26 15:58 | 51.05275 | 1.36310 | 8965 ft | 286 kts | 12° |
| 2026-04-26 15:58 | 51.07221 | 1.36990 | 8874 ft | 286 kts | 12° |
| 2026-04-26 15:59 | 51.09139 | 1.37661 | 8800 ft | 286 kts | 12° |
| 2026-04-26 15:59 | 51.11080 | 1.38340 | 8719 ft | 285 kts | 12° |
| 2026-04-26 15:59 | 51.13041 | 1.39026 | 8641 ft | 285 kts | 12° |
| 2026-04-26 15:59 | 51.14976 | 1.39705 | 8555 ft | 284 kts | 12° |
| 2026-04-26 16:00 | 51.16880 | 1.40374 | 8487 ft | 284 kts | 12° |
| 2026-04-26 16:00 | 51.18808 | 1.41051 | 8407 ft | 284 kts | 12° |
| 2026-04-26 16:00 | 51.20744 | 1.41630 | 8306 ft | 283 kts | 3° |
| 2026-04-26 16:00 | 51.22676 | 1.41237 | 8188 ft | 281 kts | 340° |
| 2026-04-26 16:01 | 51.24347 | 1.39706 | 7828 ft | 277 kts | 317° |
| 2026-04-26 16:01 | 51.25474 | 1.37250 | 7409 ft | 275 kts | 294° |
| 2026-04-26 16:01 | 51.26216 | 1.34438 | 7315 ft | 275 kts | 293° |
| 2026-04-26 16:01 | 51.26975 | 1.31623 | 7327 ft | 277 kts | 293° |
| 2026-04-26 16:02 | 51.27747 | 1.28799 | 7322 ft | 277 kts | 294° |
| 2026-04-26 16:02 | 51.28520 | 1.25976 | 7321 ft | 277 kts | 294° |
| 2026-04-26 16:02 | 51.29292 | 1.23154 | 7320 ft | 277 kts | 294° |
| 2026-04-26 16:02 | 51.29812 | 1.21244 | 7320 ft | 277 kts | 294° |
| 2026-04-26 16:03 | 51.30829 | 1.17504 | 7320 ft | 277 kts | 293° |
| 2026-04-26 16:03 | 51.31598 | 1.14676 | 7321 ft | 278 kts | 294° |
| 2026-04-26 16:03 | 51.32368 | 1.11848 | 7326 ft | 278 kts | 294° |
| 2026-04-26 16:03 | 51.33137 | 1.09016 | 7332 ft | 277 kts | 293° |
| 2026-04-26 16:04 | 51.33904 | 1.06187 | 7324 ft | 277 kts | 293° |
| 2026-04-26 16:04 | 51.34670 | 1.03355 | 7322 ft | 277 kts | 293° |
| 2026-04-26 16:04 | 51.35435 | 1.00523 | 7327 ft | 277 kts | 293° |
| 2026-04-26 16:04 | 51.36198 | 0.97687 | 7331 ft | 277 kts | 293° |
| 2026-04-26 16:05 | 51.36960 | 0.94855 | 7326 ft | 277 kts | 293° |
| 2026-04-26 16:05 | 51.37721 | 0.92021 | 7321 ft | 277 kts | 293° |
| 2026-04-26 16:05 | 51.38483 | 0.89183 | 7322 ft | 277 kts | 293° |
| 2026-04-26 16:05 | 51.39246 | 0.86342 | 6960 ft | 281 kts | 293° |
| 2026-04-26 16:06 | 51.40016 | 0.83470 | 6564 ft | 278 kts | 293° |
| 2026-04-26 16:06 | 51.40772 | 0.80636 | 6082 ft | 275 kts | 293° |
| 2026-04-26 16:06 | 51.41519 | 0.77835 | 5362 ft | 272 kts | 293° |
| 2026-04-26 16:06 | 51.42257 | 0.75062 | 4632 ft | 270 kts | 293° |
| 2026-04-26 16:07 | 51.42988 | 0.72308 | 3962 ft | 267 kts | 293° |
| 2026-04-26 16:07 | 51.43690 | 0.69660 | 3748 ft | 251 kts | 294° |
| 2026-04-26 16:07 | 51.44357 | 0.67142 | 3617 ft | 240 kts | 293° |
| 2026-04-26 16:07 | 51.44991 | 0.64745 | 3522 ft | 227 kts | 294° |
| 2026-04-26 16:08 | 51.45595 | 0.62464 | 3417 ft | 217 kts | 293° |
| 2026-04-26 16:08 | 51.46178 | 0.60262 | 3317 ft | 213 kts | 293° |
| 2026-04-26 16:08 | 51.46751 | 0.58103 | 2950 ft | 210 kts | 294° |
| 2026-04-26 16:08 | 51.47394 | 0.56009 | 2553 ft | 210 kts | 311° |
| 2026-04-26 16:09 | 51.48553 | 0.54753 | 2474 ft | 197 kts | 347° |
| 2026-04-26 16:09 | 51.49851 | 0.54742 | 2417 ft | 180 kts | 18° |
| 2026-04-26 16:09 | 51.50859 | 0.55691 | 2224 ft | 162 kts | 48° |
| 2026-04-26 16:09 | 51.51514 | 0.57078 | 2027 ft | 152 kts | 55° |
| 2026-04-26 16:10 | 51.52120 | 0.58418 | 1802 ft | 145 kts | 55° |
| 2026-04-26 16:10 | 51.52699 | 0.59697 | 1589 ft | 139 kts | 56° |
| 2026-04-26 16:10 | 51.53258 | 0.60936 | 1377 ft | 136 kts | 56° |
| 2026-04-26 16:10 | 51.53809 | 0.62155 | 1171 ft | 134 kts | 56° |
| 2026-04-26 16:11 | 51.54356 | 0.63367 | 963 ft | 134 kts | 56° |
| 2026-04-26 16:11 | 51.54898 | 0.64580 | 763 ft | 133 kts | 56° |
| 2026-04-26 16:11 | 51.55444 | 0.65782 | 557 ft | 134 kts | 55° |
| 2026-04-26 16:11 | 51.55993 | 0.66985 | 306 ft | 133 kts | 55° |
| 2026-04-26 16:12 | 51.56533 | 0.68196 | 74 ft | 133 kts | 54° |
| 2026-04-26 16:12 | 51.57002 | 0.69232 | 56 ft | 92 kts | 54° |
| 2026-04-26 16:12 | 51.57429 | 0.70175 | 54 ft | 37 kts | 53° |
| 2026-04-26 16:13 | 51.57532 | 0.70405 | 52 ft | 17 kts | 68° |
| 2026-04-26 16:13 | 51.57456 | 0.70474 | 54 ft | 16 kts | 188° |
| 2026-04-26 16:13 | 51.57359 | 0.70433 | 54 ft | 14 kts | 208° |
| 2026-04-26 16:13 | 51.57300 | 0.70322 | 54 ft | 13 kts | 236° |
| 2026-04-26 16:14 | 51.57242 | 0.70232 | 54 ft | 11 kts | 191° |
| 2026-04-26 16:14 | 51.57167 | 0.70225 | 54 ft | 10 kts | 182° |
| 2026-04-26 16:14 | 51.56956 | 0.70197 | 54 ft | 12 kts | 188° |
| 2026-04-26 16:15 | 51.56927 | 0.70239 | 50 ft | 6 kts | 73° |
| 2026-04-26 16:15 | 51.56927 | 0.70272 | 54 ft | 0 kts | 93° |